createdAt,value
2018-06-27T00:03:35.931Z,54.60
2018-06-27T00:08:39.191Z,54.40
2018-06-27T00:13:42.455Z,54.70
2018-06-27T00:18:46.040Z,54.60
2018-06-27T00:23:49.726Z,54.40
2018-06-27T00:28:52.976Z,54.60
2018-06-27T00:33:56.218Z,54.40
2018-06-27T00:38:59.449Z,54.30
2018-06-27T00:44:02.744Z,54.30
2018-06-27T00:49:06.194Z,54.30
2018-06-27T00:54:09.866Z,54.30
2018-06-27T00:59:13.085Z,54.40
2018-06-27T01:04:16.315Z,54.40
2018-06-27T01:09:19.561Z,54.40
2018-06-27T01:14:22.803Z,54.30
2018-06-27T01:19:26.043Z,54.00
2018-06-27T01:24:29.280Z,54.20
2018-06-27T01:29:32.504Z,54.40
2018-06-27T01:34:35.751Z,54.00
2018-06-27T01:39:38.991Z,54.20
2018-06-27T01:44:42.206Z,54.10
2018-06-27T01:49:45.439Z,54.00
2018-06-27T01:54:48.677Z,54.10
2018-06-27T01:59:51.940Z,54.30
2018-06-27T02:04:55.185Z,54.10
2018-06-27T02:09:58.420Z,54.10
2018-06-27T02:15:01.662Z,53.90
2018-06-27T02:20:04.900Z,54.00
2018-06-27T02:25:08.209Z,53.90
2018-06-27T02:30:11.436Z,53.90
2018-06-27T02:35:14.652Z,54.30
2018-06-27T02:40:17.882Z,54.20
2018-06-27T02:45:21.107Z,54.10
2018-06-27T02:50:24.350Z,53.90
2018-06-27T02:55:27.564Z,54.00
2018-06-27T03:00:30.791Z,54.10
2018-06-27T03:05:34.023Z,54.20
2018-06-27T03:10:37.248Z,54.10
2018-06-27T03:15:41.208Z,53.90
2018-06-27T03:20:45.049Z,54.20
2018-06-27T03:25:48.308Z,53.90
2018-06-27T03:30:51.527Z,54.00
2018-06-27T03:35:54.748Z,54.20
2018-06-27T03:40:57.958Z,54.10
2018-06-27T03:46:01.179Z,53.80
2018-06-27T03:51:04.400Z,53.90
2018-06-27T03:56:08.340Z,53.80
2018-06-27T04:01:11.548Z,54.60
2018-06-27T04:06:14.755Z,54.20
2018-06-27T04:11:17.966Z,54.10
2018-06-27T04:16:21.183Z,54.20
2018-06-27T04:21:24.402Z,54.10
2018-06-27T04:26:27.636Z,54.10
2018-06-27T04:31:31.211Z,54.10
2018-06-27T04:36:34.655Z,54.30
2018-06-27T04:41:38.893Z,54.10
2018-06-27T04:46:42.643Z,54.20
2018-06-27T04:51:45.884Z,54.40
2018-06-27T04:56:49.095Z,54.30
2018-06-27T05:01:52.315Z,54.40
2018-06-27T05:06:55.632Z,54.20
2018-06-27T05:11:58.856Z,54.30
2018-06-27T05:17:02.088Z,54.10
2018-06-27T05:22:06.228Z,54.30
2018-06-27T05:27:09.555Z,54.60
2018-06-27T05:32:12.819Z,54.30
2018-06-27T05:37:16.008Z,55.20
2018-06-27T05:42:19.306Z,54.60
2018-06-27T05:47:22.511Z,54.40
2018-06-27T05:52:25.716Z,54.60
2018-06-27T05:57:28.920Z,54.60
2018-06-27T06:02:32.137Z,54.50
2018-06-27T06:07:35.367Z,54.80
2018-06-27T06:12:38.603Z,54.80
2018-06-27T06:17:41.861Z,54.70
2018-06-27T06:22:45.096Z,54.60
2018-06-27T06:32:51.307Z,54.60
2018-06-27T06:37:54.570Z,54.60
2018-06-27T06:42:57.816Z,54.70
2018-06-27T06:48:01.052Z,54.40
2018-06-27T06:58:07.263Z,54.50
2018-06-27T07:03:10.474Z,55.00
2018-06-27T07:08:13.765Z,54.90
2018-06-27T07:13:17.391Z,54.60
2018-06-27T07:18:20.635Z,55.00
2018-06-27T07:23:23.865Z,55.00
2018-06-27T07:28:27.143Z,55.50
2018-06-27T07:33:30.324Z,55.70
2018-06-27T07:38:33.571Z,57.10
2018-06-27T07:43:36.793Z,56.40
2018-06-27T07:48:40.076Z,56.40
2018-06-27T07:53:43.298Z,56.80
2018-06-27T07:58:46.512Z,56.50
2018-06-27T08:03:49.748Z,56.70
2018-06-27T08:08:52.980Z,56.80
2018-06-27T08:13:56.324Z,57.80
2018-06-27T08:18:59.563Z,57.80
2018-06-27T08:24:03.260Z,57.50
2018-06-27T08:29:06.515Z,58.40
2018-06-27T08:34:09.704Z,58.50
2018-06-27T08:39:12.948Z,57.90
2018-06-27T08:44:16.215Z,58.50
2018-06-27T08:49:19.448Z,58.70
2018-06-27T08:54:22.687Z,58.90
2018-06-27T08:59:25.927Z,58.80
2018-06-27T09:04:29.179Z,59.10
2018-06-27T09:09:32.430Z,59.30
2018-06-27T09:14:35.669Z,58.90
2018-06-27T09:19:38.896Z,60.30
2018-06-27T09:24:42.128Z,60.20
2018-06-27T09:29:45.377Z,59.90
2018-06-27T09:34:48.591Z,59.30
2018-06-27T09:39:51.808Z,59.30
2018-06-27T09:44:55.132Z,59.00
2018-06-27T09:49:58.331Z,59.20
2018-06-27T09:55:01.565Z,59.50
2018-06-27T10:00:05.324Z,58.70
2018-06-27T10:05:08.596Z,58.80
2018-06-27T10:10:11.840Z,58.10
2018-06-27T10:15:15.095Z,58.80
2018-06-27T10:20:18.321Z,58.50
2018-06-27T10:25:21.555Z,57.40
2018-06-27T10:30:24.791Z,58.60
2018-06-27T10:35:28.005Z,58.00
2018-06-27T10:40:31.224Z,57.50
2018-06-27T10:50:37.448Z,57.90
2018-06-27T10:55:40.676Z,57.20
2018-06-27T11:00:43.900Z,56.70
2018-06-27T11:05:47.116Z,56.90
2018-06-27T11:10:50.339Z,56.90
2018-06-27T11:15:53.580Z,56.80
2018-06-27T11:20:56.804Z,56.20
2018-06-27T11:26:00.093Z,52.60
2018-06-27T11:31:03.302Z,52.60
2018-06-27T11:36:06.518Z,53.20
2018-06-27T11:41:09.752Z,50.80
2018-06-27T11:51:15.948Z,52.70
2018-06-27T11:56:19.178Z,51.90
2018-06-27T12:01:22.403Z,51.60
2018-06-27T12:06:25.735Z,48.10
2018-06-27T12:11:28.963Z,50.80
2018-06-27T12:16:32.199Z,49.70
2018-06-27T12:21:35.431Z,49.40
2018-06-27T12:26:38.649Z,50.30
2018-06-27T12:31:41.844Z,49.20
2018-06-27T12:36:45.045Z,49.80
2018-06-27T12:41:48.252Z,49.40
2018-06-27T12:46:51.492Z,47.70
2018-06-27T12:51:54.712Z,48.50
2018-06-27T12:56:57.924Z,47.80
2018-06-27T13:02:01.160Z,47.60
2018-06-27T13:07:04.412Z,47.70
2018-06-27T13:12:07.668Z,47.70
2018-06-27T13:17:10.884Z,48.60
2018-06-27T13:22:14.097Z,49.80
2018-06-27T13:27:17.303Z,48.20
2018-06-27T13:32:20.508Z,49.80
2018-06-27T13:37:23.796Z,48.10
2018-06-27T13:42:27.035Z,47.70
2018-06-27T13:47:30.496Z,48.20
2018-06-27T13:52:33.745Z,49.30
2018-06-27T13:57:36.963Z,47.80
2018-06-27T14:02:40.177Z,48.80
2018-06-27T14:07:43.400Z,48.10
2018-06-27T14:12:46.655Z,48.50
2018-06-27T14:17:49.915Z,47.90
2018-06-27T14:22:53.144Z,47.40
2018-06-27T14:27:56.376Z,47.30
2018-06-27T14:32:59.631Z,48.10
2018-06-27T14:38:02.985Z,47.70
2018-06-27T14:43:06.333Z,47.50
2018-06-27T14:48:09.563Z,47.70
2018-06-27T14:53:12.780Z,46.80
2018-06-27T14:58:16.011Z,46.20
2018-06-27T15:03:19.374Z,46.50
2018-06-27T15:08:22.908Z,46.80
2018-06-27T15:13:26.151Z,47.60
2018-06-27T15:18:30.640Z,46.30
2018-06-27T15:23:33.930Z,47.70
2018-06-27T15:28:37.204Z,46.70
2018-06-27T15:33:40.424Z,46.40
2018-06-27T15:38:43.886Z,45.70
2018-06-27T15:43:47.180Z,45.90
2018-06-27T15:48:50.404Z,46.20
2018-06-27T15:53:53.636Z,46.50
2018-06-27T15:58:56.876Z,45.50
2018-06-27T16:04:00.208Z,47.10
2018-06-27T16:09:04.500Z,46.40
2018-06-27T16:14:07.731Z,46.80
2018-06-27T16:19:10.948Z,46.00
2018-06-27T16:24:14.230Z,42.80
2018-06-27T16:29:17.427Z,43.60
2018-06-27T16:34:20.795Z,44.30
2018-06-27T16:39:23.923Z,45.10
2018-06-27T16:44:27.161Z,44.30
2018-06-27T16:49:30.597Z,44.00
2018-06-27T16:54:33.905Z,44.50
2018-06-27T16:59:37.120Z,44.30
2018-06-27T17:04:40.318Z,44.40
2018-06-27T17:09:43.526Z,45.10
2018-06-27T17:14:47.627Z,45.10
2018-06-27T17:19:50.833Z,45.50
2018-06-27T17:24:54.163Z,45.40
2018-06-27T17:29:57.400Z,45.30
2018-06-27T17:35:02.303Z,45.40
2018-06-27T17:40:05.830Z,45.10
2018-06-27T17:45:09.048Z,45.50
2018-06-27T17:50:12.288Z,45.10
2018-06-27T17:55:15.515Z,45.10
2018-06-27T18:00:18.792Z,45.00
2018-06-27T18:05:21.999Z,45.70
2018-06-27T18:10:25.220Z,45.70
2018-06-27T18:15:28.440Z,45.80
2018-06-27T18:20:31.760Z,45.70
2018-06-27T18:25:34.991Z,46.00
2018-06-27T18:30:38.195Z,45.60
2018-06-27T18:35:41.408Z,45.90
2018-06-27T18:40:45.536Z,46.00
2018-06-27T18:45:49.062Z,45.80
2018-06-27T18:50:52.268Z,46.10
2018-06-27T18:55:55.997Z,46.70
2018-06-27T19:00:59.214Z,46.70
2018-06-27T19:06:02.424Z,46.70
2018-06-27T19:11:07.884Z,46.30
2018-06-27T19:16:12.632Z,47.00
2018-06-27T19:21:16.558Z,47.00
2018-06-27T19:26:21.367Z,47.10
2018-06-27T19:31:25.670Z,47.00
2018-06-27T19:36:29.904Z,47.00
2018-06-27T19:41:33.140Z,47.20
2018-06-27T19:46:36.352Z,47.20
2018-06-27T19:51:39.647Z,47.30
2018-06-27T19:56:42.809Z,47.30
2018-06-27T20:01:46.040Z,47.40
2018-06-27T20:06:49.271Z,47.50
2018-06-27T20:11:52.496Z,47.50
2018-06-27T20:16:58.235Z,47.50
2018-06-27T20:22:01.499Z,47.60
2018-06-27T20:27:04.751Z,47.60
2018-06-27T20:32:07.964Z,47.60
2018-06-27T20:37:11.266Z,47.70
2018-06-27T20:42:14.411Z,47.60
2018-06-27T20:47:17.704Z,47.60
2018-06-27T20:52:20.872Z,47.60
2018-06-27T20:57:24.134Z,47.80
2018-06-27T21:02:27.360Z,47.90
2018-06-27T21:07:30.609Z,47.90
2018-06-27T21:12:33.939Z,47.90
2018-06-27T21:17:37.179Z,47.90
2018-06-27T21:22:40.515Z,48.10
2018-06-27T21:27:43.744Z,48.20
2018-06-27T21:32:46.969Z,48.30
2018-06-27T21:37:50.204Z,48.40
2018-06-27T21:42:53.591Z,48.40
2018-06-27T21:47:56.823Z,48.40
2018-06-27T21:53:00.053Z,48.60
2018-06-27T21:58:03.283Z,48.70
2018-06-27T22:03:06.512Z,48.70
2018-06-27T22:08:09.763Z,48.80
2018-06-27T22:13:13.015Z,48.70
2018-06-27T22:18:16.571Z,48.90
2018-06-27T22:23:19.900Z,49.00
2018-06-27T22:28:23.139Z,49.20
2018-06-27T22:33:26.368Z,49.30
2018-06-27T22:38:29.587Z,49.20
2018-06-27T22:43:32.859Z,48.90
2018-06-27T22:48:36.153Z,49.10
2018-06-27T22:53:39.380Z,49.20
2018-06-27T22:58:42.598Z,49.40
2018-06-27T23:03:45.855Z,49.30
2018-06-27T23:08:49.091Z,49.50
2018-06-27T23:13:52.323Z,49.60
2018-06-27T23:18:55.695Z,49.50
2018-06-27T23:23:58.910Z,49.50
2018-06-27T23:29:02.116Z,49.70
2018-06-27T23:34:05.359Z,49.70
2018-06-27T23:39:10.590Z,49.70
2018-06-27T23:44:13.928Z,49.70
2018-06-27T23:49:17.144Z,50.00
2018-06-27T23:54:20.347Z,50.20
2018-06-27T23:59:23.556Z,50.00
